Time;durP1;ratioP1;P1;durP2;ratioP2;P2;SDS_P1;SDS_P2;PMS_P1;PMS_P2;Temp;Humidity;BMP_temperature;BMP_pressure;BME280_temperature;BME280_humidity;BME280_pressure;Samples;Min_cycle;Max_cycle;Signal;HPM_P1;HPM_P2
2023/11/18 00:00:28;;;;;;;0.57;0.17;;;;;;;7.59;100.00;99875.25;7392543;19;20014;-80
2023/11/18 00:02:54;;;;;;;0.40;0.40;;;;;;;7.59;100.00;99869.69;7392186;19;20018;-80
2023/11/18 00:05:21;;;;;;;0.10;0.10;;;;;;;7.34;100.00;99867.09;7391707;19;20027;-80
2023/11/18 00:07:47;;;;;;;0.45;0.45;;;;;;;7.31;100.00;99858.91;7392221;19;20014;-83
2023/11/18 00:10:13;;;;;;;0.10;0.08;;;;;;;7.91;100.00;99851.00;7389454;19;20015;-82
2023/11/18 00:12:41;;;;;;;0.28;0.28;;;;;;;8.20;100.00;99840.31;7389937;19;20017;-81
2023/11/18 00:15:10;;;;;;;0.30;0.30;;;;;;;7.10;100.00;99826.50;7391040;19;20002;-81
2023/11/18 00:17:37;;;;;;;0.77;0.77;;;;;;;6.93;100.00;99816.84;7390594;19;20479;-80
2023/11/18 00:20:09;;;;;;;0.45;0.45;;;;;;;6.89;100.00;99805.88;7391953;19;20012;-82
2023/11/18 00:22:35;;;;;;;;;;;;;;;6.90;100.00;99801.91;7392284;19;20011;-80
2023/11/18 00:25:05;;;;;;;1.95;1.08;;;;;;;6.92;100.00;99812.53;7392952;19;19918;-81
2023/11/18 00:27:31;;;;;;;5.57;1.42;;;;;;;6.91;100.00;99800.66;7390514;19;20461;-82
2023/11/18 00:29:57;;;;;;;0.45;0.32;;;;;;;7.66;100.00;99788.28;7391041;19;20015;-80
2023/11/18 00:32:23;;;;;;;0.50;0.30;;;;;;;10.77;100.00;99785.66;7388929;19;20035;-79
2023/11/18 00:34:49;;;;;;;0.10;0.05;;;;;;;10.71;100.00;99782.00;7390913;19;20033;-80
2023/11/18 00:37:16;;;;;;;0.20;0.10;;;;;;;11.03;100.00;99775.50;7393212;19;20019;-84
2023/11/18 00:39:42;;;;;;;0.25;0.10;;;;;;;7.60;100.00;99771.47;7392263;19;20043;-83
2023/11/18 00:42:08;;;;;;;1.00;0.65;;;;;;;7.19;100.00;99769.13;7391169;19;20011;-81
2023/11/18 00:44:34;;;;;;;0.10;0.00;;;;;;;6.99;100.00;99785.38;7388782;19;20002;-82
2023/11/18 00:47:00;;;;;;;0.35;0.25;;;;;;;8.11;100.00;99765.41;7392201;19;20011;-80
2023/11/18 00:49:26;;;;;;;1.13;0.52;;;;;;;8.39;100.00;99759.44;7390798;19;20015;-79
2023/11/18 00:51:53;;;;;;;0.50;0.20;;;;;;;7.36;100.00;99764.91;7392585;19;20347;-85
2023/11/18 00:54:19;;;;;;;0.10;0.10;;;;;;;7.52;100.00;99753.59;7389336;19;20374;-81
2023/11/18 00:56:45;;;;;;;1.10;0.40;;;;;;;7.33;100.00;99762.28;7391517;19;20039;-80
2023/11/18 00:59:12;;;;;;;0.10;0.10;;;;;;;7.09;100.00;99759.25;7395447;19;20018;-81
2023/11/18 01:01:40;;;;;;;0.10;0.10;;;;;;;7.34;100.00;99745.19;7389729;19;20007;-82
2023/11/18 01:04:06;;;;;;;0.10;0.10;;;;;;;7.41;100.00;99727.53;7394443;19;20026;-85
2023/11/18 01:06:32;;;;;;;0.95;0.30;;;;;;;9.02;100.00;99700.25;7391000;19;20014;-86
2023/11/18 01:08:58;;;;;;;0.73;0.47;;;;;;;9.20;100.00;99681.97;7394774;19;20007;-87
2023/11/18 01:11:24;;;;;;;0.22;0.22;;;;;;;7.72;100.00;99674.78;7390326;19;20002;-84
2023/11/18 01:13:50;;;;;;;0.20;0.20;;;;;;;8.38;100.00;99671.88;7392932;19;20015;-81
2023/11/18 01:16:17;;;;;;;0.10;0.10;;;;;;;9.33;100.00;99651.94;7390883;19;20010;-81
2023/11/18 01:18:43;;;;;;;0.10;0.10;;;;;;;7.69;100.00;99646.00;7389539;19;20031;-82
2023/11/18 01:21:10;;;;;;;0.20;0.20;;;;;;;8.61;100.00;99631.59;7389126;19;20044;-81
2023/11/18 01:23:36;;;;;;;0.43;0.30;;;;;;;7.74;100.00;99641.84;7391712;19;20014;-82
2023/11/18 01:26:04;;;;;;;0.10;0.10;;;;;;;7.53;100.00;99640.75;7388419;19;20007;-81
2023/11/18 01:28:39;;;;;;;0.10;0.10;;;;;;;7.35;100.00;99632.41;7392076;19;20074;-81
2023/11/18 01:31:09;;;;;;;0.20;0.20;;;;;;;10.46;100.00;99602.38;7389136;19;20453;-82
2023/11/18 01:33:37;;;;;;;0.10;0.10;;;;;;;10.59;100.00;99613.94;7389349;19;20014;-82
2023/11/18 01:36:04;;;;;;;0.10;0.10;;;;;;;10.71;100.00;99593.38;7388429;19;20018;-80
2023/11/18 01:38:30;;;;;;;0.10;0.00;;;;;;;9.90;100.00;99604.09;7389519;19;19995;-81
2023/11/18 01:40:56;;;;;;;0.25;0.25;;;;;;;7.62;100.00;99608.25;7388497;19;20014;-80
2023/11/18 01:43:23;;;;;;;0.10;0.10;;;;;;;8.67;100.00;99601.97;7390287;19;20050;-81
2023/11/18 01:45:49;;;;;;;0.10;0.08;;;;;;;9.89;100.00;99593.47;7387646;19;20011;-81
2023/11/18 01:48:15;;;;;;;0.30;0.30;;;;;;;8.78;100.00;99582.78;7388863;19;20383;-81
2023/11/18 01:50:44;;;;;;;2.15;0.75;;;;;;;9.58;100.00;99579.97;7388408;19;20003;-81
2023/11/18 01:53:13;;;;;;;0.10;0.10;;;;;;;7.52;100.00;99579.03;7389907;19;20021;-81
2023/11/18 01:55:40;;;;;;;0.10;0.10;;;;;;;10.74;100.00;99566.59;7387327;19;20083;-80
2023/11/18 01:58:10;;;;;;;0.30;0.30;;;;;;;8.56;100.00;99573.94;7387569;19;20010;-81
2023/11/18 02:00:39;;;;;;;0.50;0.30;;;;;;;7.88;100.00;99558.84;7386709;19;20005;-81
2023/11/18 02:03:05;;;;;;;0.80;0.38;;;;;;;9.52;100.00;99548.50;7389049;19;20047;-80
2023/11/18 02:05:32;;;;;;;0.13;0.13;;;;;;;8.18;100.00;99526.56;7387087;19;19994;-81
2023/11/18 02:08:00;;;;;;;0.10;0.00;;;;;;;10.43;100.00;99526.13;7387658;19;20013;-81
2023/11/18 02:10:27;;;;;;;0.10;0.00;;;;;;;10.88;100.00;99529.56;7393645;19;20326;-81
2023/11/18 02:13:16;;;;;;;0.20;0.20;;;;;;;10.91;100.00;99528.59;7395733;19;20025;-81
2023/11/18 02:15:43;;;;;;;0.10;0.10;;;;;;;11.41;100.00;99518.88;7395761;19;20013;-81
2023/11/18 02:18:10;;;;;;;0.10;0.10;;;;;;;10.91;100.00;99514.69;7397605;19;20018;-81
2023/11/18 02:20:37;;;;;;;0.10;0.10;;;;;;;9.18;100.00;99514.97;7394217;19;20453;-80
2023/11/18 02:23:04;;;;;;;0.30;0.30;;;;;;;11.00;100.00;99523.66;7392929;19;20010;-81
2023/11/18 02:25:34;;;;;;;0.10;0.10;;;;;;;9.91;100.00;99518.66;7394477;19;20021;-90
2023/11/18 02:28:00;;;;;;;0.55;0.30;;;;;;;8.95;100.00;99522.84;7398016;19;19998;-90
2023/11/18 02:30:30;;;;;;;0.10;0.10;;;;;;;10.70;100.00;99504.75;7395624;19;19998;-90
2023/11/18 02:33:05;;;;;;;0.17;0.17;;;;;;;10.14;100.00;99508.69;7396297;19;20282;-88
2023/11/18 02:36:00;;;;;;;0.10;0.00;;;;;;;9.36;100.00;99507.25;7393903;19;20032;-90
2023/11/18 02:38:31;;;;;;;0.10;0.03;;;;;;;10.73;100.00;99470.34;7395579;19;20034;-89
2023/11/18 02:41:01;;;;;;;0.10;0.05;;;;;;;8.44;100.00;99472.25;7395431;19;20035;-89
2023/11/18 02:43:30;;;;;;;0.10;0.10;;;;;;;10.64;100.00;99474.81;7397595;19;20022;-89
2023/11/18 02:45:57;;;;;;;0.10;0.10;;;;;;;8.42;100.00;99471.94;7394978;19;20007;-89
2023/11/18 02:48:27;;;;;;;0.10;0.10;;;;;;;7.42;100.00;99444.53;7395875;19;20477;-89
2023/11/18 02:50:53;;;;;;;0.10;0.10;;;;;;;7.23;100.00;99451.31;7395889;19;20009;-89
2023/11/18 02:53:20;;;;;;;0.10;0.10;;;;;;;7.64;100.00;99445.06;7395787;19;20009;-89
2023/11/18 02:55:46;;;;;;;0.45;0.20;;;;;;;8.85;100.00;99440.84;7397077;19;20449;-90
2023/11/18 02:58:12;;;;;;;0.10;0.10;;;;;;;10.45;100.00;99417.06;7396255;19;20014;-90
2023/11/18 03:00:38;;;;;;;0.38;0.38;;;;;;;11.72;100.00;99396.25;7394968;19;20022;-90
2023/11/18 03:03:05;;;;;;;0.10;0.10;;;;;;;11.45;100.00;99388.38;7398877;19;20031;-90
2023/11/18 03:05:31;;;;;;;0.10;0.10;;;;;;;7.96;100.00;99409.56;7395881;19;20011;-89
2023/11/18 03:07:58;;;;;;;0.10;0.10;;;;;;;11.74;100.00;99404.88;7395686;19;20003;-90
2023/11/18 03:10:24;;;;;;;0.20;0.20;;;;;;;10.94;100.00;99391.09;7394968;19;19998;-90
2023/11/18 03:12:54;;;;;;;0.10;0.00;;;;;;;10.38;100.00;99390.41;7395791;19;20030;-91
2023/11/18 03:15:22;;;;;;;0.10;0.00;;;;;;;10.61;100.00;99369.97;7393999;19;20014;-89
2023/11/18 03:17:49;;;;;;;0.10;0.10;;;;;;;7.69;100.00;99373.66;7395636;19;20006;-90
2023/11/18 03:20:17;;;;;;;0.10;0.10;;;;;;;7.35;100.00;99383.13;7395344;19;20006;-89
2023/11/18 03:22:46;;;;;;;0.10;0.10;;;;;;;7.92;100.00;99359.84;7395499;19;20010;-90
2023/11/18 03:27:59;;;;;;;0.10;0.10;;;;;;;7.61;100.00;99337.94;7396279;19;20356;-60
2023/11/18 03:30:25;;;;;;;0.45;0.10;;;;;;;8.60;100.00;99318.44;7396092;19;20074;-60
2023/11/18 03:32:51;;;;;;;0.10;0.10;;;;;;;7.43;100.00;99315.84;7393768;19;20014;-61
2023/11/18 03:35:17;;;;;;;0.10;0.10;;;;;;;7.26;100.00;99306.34;7394409;19;20364;-61
2023/11/18 03:37:43;;;;;;;0.10;0.10;;;;;;;8.82;100.00;99316.06;7396944;19;20023;-60
2023/11/18 03:40:12;;;;;;;0.17;0.17;;;;;;;8.31;100.00;99289.38;7393687;19;20017;-60
2023/11/18 03:42:39;;;;;;;0.10;0.10;;;;;;;7.68;100.00;99300.03;7395279;19;20018;-59
2023/11/18 03:45:06;;;;;;;0.10;0.10;;;;;;;9.00;100.00;99290.91;7395545;19;20015;-60
2023/11/18 03:47:33;;;;;;;0.22;0.22;;;;;;;7.75;100.00;99280.31;7393887;19;20082;-59
2023/11/18 03:49:59;;;;;;;0.05;0.05;;;;;;;10.27;100.00;99267.81;7398366;19;20401;-60
2023/11/18 03:52:27;;;;;;;0.20;0.20;;;;;;;10.80;100.00;99270.19;7395507;19;20007;-60
2023/11/18 03:54:55;;;;;;;0.10;0.10;;;;;;;11.76;100.00;99268.44;7396496;19;20066;-60
2023/11/18 03:57:21;;;;;;;0.10;0.10;;;;;;;12.17;100.00;99266.16;7396276;19;20455;-60
2023/11/18 03:59:48;;;;;;;0.10;0.10;;;;;;;12.13;100.00;99255.22;7396062;19;20014;-60
2023/11/18 04:02:14;;;;;;;0.10;0.00;;;;;;;11.09;100.00;99246.88;7399729;19;20010;-60
2023/11/18 04:04:40;;;;;;;0.10;0.10;;;;;;;11.09;100.00;99241.31;7395035;19;20106;-60
2023/11/18 04:07:06;;;;;;;0.10;0.08;;;;;;;10.80;100.00;99227.63;7397296;19;20034;-61
2023/11/18 04:09:32;;;;;;;0.10;0.10;;;;;;;10.89;100.00;99219.13;7395244;19;20015;-61
2023/11/18 04:11:59;;;;;;;0.10;0.10;;;;;;;10.07;100.00;99203.78;7394773;19;20022;-61
2023/11/18 04:14:25;;;;;;;0.10;0.10;;;;;;;8.73;100.00;99203.09;7398599;19;20010;-60
2023/11/18 04:16:51;;;;;;;0.28;0.28;;;;;;;8.93;100.00;99211.53;7395909;19;20011;-60
2023/11/18 04:19:18;;;;;;;0.10;0.10;;;;;;;10.35;100.00;99198.59;7399511;19;20490;-60
2023/11/18 04:21:48;;;;;;;0.30;0.30;;;;;;;9.72;100.00;99200.34;7396360;19;20014;-59
2023/11/18 04:24:15;;;;;;;0.10;0.00;;;;;;;11.14;100.00;99180.06;7396216;19;20014;-60
2023/11/18 04:26:41;;;;;;;0.10;0.10;;;;;;;11.08;100.00;99156.19;7397278;19;20019;-60
2023/11/18 04:29:08;;;;;;;0.13;0.13;;;;;;;9.03;100.00;99151.84;7397343;19;20018;-60
2023/11/18 04:31:34;;;;;;;0.10;0.00;;;;;;;15.33;100.00;99156.25;7398471;19;20463;-60
2023/11/18 04:34:01;;;;;;;0.10;0.10;;;;;;;14.76;100.00;99163.63;7398649;19;20018;-60
2023/11/18 04:36:29;;;;;;;0.10;0.10;;;;;;;14.85;100.00;99160.50;7399068;19;20042;-60
2023/11/18 04:38:55;;;;;;;0.10;0.10;;;;;;;14.55;100.00;99142.88;7398263;19;20423;-57
2023/11/18 04:41:23;;;;;;;0.55;0.25;;;;;;;15.06;100.00;99127.16;7397749;19;20078;-57
2023/11/18 04:43:50;;;;;;;0.10;0.10;;;;;;;14.18;100.00;99139.78;7396978;19;20014;-57
2023/11/18 04:46:16;;;;;;;0.10;0.08;;;;;;;14.32;100.00;99144.28;7398796;19;20017;-57
2023/11/18 04:48:42;;;;;;;0.10;0.10;;;;;;;11.72;100.00;99142.41;7394029;19;20167;-57
2023/11/18 04:51:09;;;;;;;0.30;0.30;;;;;;;9.84;100.00;99129.69;7397043;19;20103;-57
2023/11/18 04:53:35;;;;;;;0.20;0.20;;;;;;;11.72;100.00;99131.25;7398688;19;20031;-57
2023/11/18 04:56:02;;;;;;;0.20;0.10;;;;;;;10.25;100.00;99131.19;7393764;19;20003;-88
2023/11/18 04:58:28;;;;;;;0.10;0.10;;;;;;;10.93;100.00;99127.72;7392971;19;20015;-88
2023/11/18 05:00:54;;;;;;;0.10;0.10;;;;;;;13.47;100.00;99119.94;7393373;19;20010;-88
2023/11/18 05:03:21;;;;;;;0.10;0.00;;;;;;;13.85;100.00;99111.94;7391128;19;20101;-88
2023/11/18 05:05:47;;;;;;;0.10;0.10;;;;;;;9.51;100.00;99110.59;7389544;19;20026;-88
2023/11/18 05:08:20;;;;;;;0.10;0.10;;;;;;;8.76;100.00;99120.88;7391540;19;20010;-88
2023/11/18 05:10:47;;;;;;;0.10;0.10;;;;;;;8.19;100.00;99112.06;7391671;19;20014;-89
2023/11/18 05:13:16;;;;;;;0.10;0.10;;;;;;;11.68;100.00;99086.09;7394063;19;20010;-88
2023/11/18 05:15:45;;;;;;;0.40;0.40;;;;;;;8.94;100.00;99093.63;7390226;19;20002;-87
2023/11/18 05:18:14;;;;;;;0.10;0.03;;;;;;;10.52;100.00;99094.50;7393497;19;20022;-88
2023/11/18 05:20:44;;;;;;;0.57;0.30;;;;;;;11.92;100.00;99089.22;7392243;19;20070;-87
2023/11/18 05:23:12;;;;;;;0.10;0.10;;;;;;;8.93;100.00;99100.47;7390328;19;20087;-88
2023/11/18 05:25:45;;;;;;;0.10;0.10;;;;;;;10.01;100.00;99091.69;7390973;19;20026;-87
2023/11/18 05:28:11;;;;;;;0.10;0.10;;;;;;;12.58;100.00;99068.97;7391732;19;20429;-87
2023/11/18 05:30:42;;;;;;;0.10;0.00;;;;;;;12.23;100.00;99070.75;7391502;19;20015;-87
2023/11/18 05:33:10;;;;;;;;;;;;;;;12.88;100.00;99072.03;7393331;19;20027;-87
2023/11/18 05:35:36;;;;;;;0.10;0.10;;;;;;;10.05;100.00;99078.34;7390121;19;19914;-87
2023/11/18 05:38:06;;;;;;;3.83;0.65;;;;;;;9.60;100.00;99079.09;7391856;19;20021;-87
2023/11/18 05:40:32;;;;;;;0.10;0.10;;;;;;;12.43;100.00;99064.94;7391134;19;20020;-88
2023/11/18 05:42:58;;;;;;;0.20;0.20;;;;;;;12.23;100.00;99073.56;7390197;19;20376;-87
2023/11/18 05:45:27;;;;;;;0.45;0.20;;;;;;;12.65;100.00;99064.91;7390415;19;20014;-87
2023/11/18 05:47:55;;;;;;;0.10;0.10;;;;;;;10.13;100.00;99065.56;7390153;19;20007;-88
2023/11/18 05:50:22;;;;;;;0.30;0.20;;;;;;;10.12;100.00;99054.91;7390122;19;20011;-87
2023/11/18 05:52:48;;;;;;;0.10;0.03;;;;;;;11.47;100.00;99031.75;7392168;19;20017;-88
2023/11/18 05:55:14;;;;;;;0.20;0.20;;;;;;;10.58;100.00;99044.44;7390432;19;20002;-87
2023/11/18 05:57:41;;;;;;;0.10;0.00;;;;;;;10.90;100.00;99028.41;7388562;19;20045;-88
2023/11/18 06:00:09;;;;;;;0.10;0.10;;;;;;;12.30;100.00;99017.22;7387548;19;20465;-88
2023/11/18 06:02:39;;;;;;;0.10;0.00;;;;;;;12.02;100.00;99012.38;7390072;19;20011;-88
2023/11/18 06:05:05;;;;;;;0.15;0.10;;;;;;;10.93;100.00;99011.50;7388234;19;20007;-88
2023/11/18 06:07:31;;;;;;;0.10;0.10;;;;;;;10.17;100.00;99026.38;7388382;19;20010;-88
2023/11/18 06:09:58;;;;;;;0.10;0.10;;;;;;;10.01;100.00;99024.16;7389708;19;20392;-88
2023/11/18 06:12:24;;;;;;;0.10;0.10;;;;;;;10.22;100.00;99025.69;7389033;19;20021;-88
2023/11/18 06:14:51;;;;;;;0.10;0.00;;;;;;;9.57;100.00;99024.50;7392422;19;20003;-87
2023/11/18 06:17:18;;;;;;;0.10;0.00;;;;;;;9.26;100.00;99025.16;7389401;19;20015;-88
2023/11/18 06:19:45;;;;;;;0.10;0.10;;;;;;;9.24;100.00;99007.44;7390636;19;20010;-88
2023/11/18 06:22:11;;;;;;;0.20;0.10;;;;;;;11.09;100.00;98991.28;7389736;19;20036;-87
2023/11/18 06:24:39;;;;;;;0.00;0.00;;;;;;;10.96;100.00;98987.44;7388397;19;20019;-88
2023/11/18 06:27:08;;;;;;;0.10;0.08;;;;;;;12.42;100.00;98946.13;7388888;19;20014;-88
2023/11/18 06:29:34;;;;;;;0.15;0.15;;;;;;;12.47;100.00;98937.00;7387953;19;20014;-88
2023/11/18 06:32:01;;;;;;;0.20;0.10;;;;;;;12.48;100.00;98924.53;7388689;19;20010;-88
2023/11/18 06:34:27;;;;;;;0.20;0.20;;;;;;;12.54;100.00;98914.13;7389474;19;20024;-88
2023/11/18 06:36:53;;;;;;;0.08;0.00;;;;;;;12.41;100.00;98928.59;7389175;19;20015;-88
2023/11/18 06:39:21;;;;;;;0.10;0.10;;;;;;;12.76;100.00;98936.41;7386728;19;20003;-88
2023/11/18 06:41:51;;;;;;;0.10;0.10;;;;;;;11.72;100.00;98936.00;7390912;19;20025;-88
2023/11/18 06:44:23;;;;;;;0.22;0.22;;;;;;;13.05;100.00;98930.22;7390600;19;20014;-87
2023/11/18 06:46:50;;;;;;;0.30;0.10;;;;;;;11.59;100.00;98935.69;7385822;19;20007;-88
2023/11/18 06:49:17;;;;;;;0.32;0.30;;;;;;;12.75;100.00;98921.69;7389870;19;20010;-88
2023/11/18 06:51:43;;;;;;;0.10;0.10;;;;;;;12.09;100.00;98930.19;7387714;19;20015;-88
2023/11/18 06:54:09;;;;;;;0.13;0.13;;;;;;;11.46;100.00;98927.06;7388519;19;20011;-87
2023/11/18 06:56:37;;;;;;;0.10;0.10;;;;;;;13.52;100.00;98923.38;7393857;19;20024;-88
2023/11/18 06:59:06;;;;;;;0.20;0.20;;;;;;;12.94;100.00;98925.44;7394670;19;20013;-88
2023/11/18 07:01:36;;;;;;;0.10;0.10;;;;;;;11.43;100.00;98948.34;7394370;19;20007;-87
2023/11/18 07:04:02;;;;;;;0.00;0.00;;;;;;;13.46;100.00;98947.81;7395113;19;20014;-88
2023/11/18 07:06:28;;;;;;;0.10;0.00;;;;;;;11.01;100.00;98950.47;7394331;19;20034;-88
2023/11/18 07:09:00;;;;;;;0.10;0.10;;;;;;;10.58;100.00;98925.47;7395334;19;20477;-87
2023/11/18 07:11:27;;;;;;;0.10;0.10;;;;;;;12.66;100.00;98912.81;7395215;19;20017;-87
2023/11/18 07:13:56;;;;;;;0.03;0.00;;;;;;;12.88;100.00;98905.13;7398004;19;20014;-88
2023/11/18 07:16:24;;;;;;;0.00;0.00;;;;;;;12.88;100.00;98915.53;7396335;19;20015;-87
2023/11/18 07:18:51;;;;;;;0.15;0.15;;;;;;;11.11;100.00;98905.19;7397658;19;20015;-88
2023/11/18 07:21:17;;;;;;;0.10;0.10;;;;;;;10.94;100.00;98917.53;7396708;19;20086;-84
2023/11/18 07:23:43;;;;;;;0.20;0.20;;;;;;;12.93;100.00;98890.34;7398270;19;20021;-88
2023/11/18 07:26:13;;;;;;;2.90;0.17;;;;;;;12.75;100.00;98901.38;7396739;19;20015;-88
2023/11/18 07:28:40;;;;;;;0.10;0.00;;;;;;;17.34;100.00;98892.00;7392985;19;20152;-88
2023/11/18 07:31:07;;;;;;;0.38;0.10;;;;;;;14.50;100.00;98899.91;7396584;19;20022;-88
2023/11/18 07:33:34;;;;;;;0.50;0.10;;;;;;;15.40;100.00;98886.31;7395993;19;20027;-88
2023/11/18 07:36:00;;;;;;;0.00;0.00;;;;;;;16.47;100.00;98882.75;7395900;19;20023;-88
2023/11/18 07:38:27;;;;;;;0.20;0.17;;;;;;;18.34;100.00;98884.72;7395132;19;20036;-88
2023/11/18 07:40:56;;;;;;;0.10;0.10;;;;;;;15.31;100.00;98897.91;7392435;19;20002;-87
2023/11/18 07:43:22;;;;;;;0.10;0.10;;;;;;;12.57;100.00;98874.75;7393321;19;20515;-88
2023/11/18 07:45:52;;;;;;;0.20;0.10;;;;;;;11.61;100.00;98880.19;7394744;19;20018;-88
2023/11/18 07:48:20;;;;;;;0.10;0.10;;;;;;;10.68;100.00;98905.78;7395272;19;20026;-83
2023/11/18 07:50:47;;;;;;;0.10;0.10;;;;;;;11.63;100.00;98893.63;7398051;19;20007;-87
2023/11/18 07:53:14;;;;;;;0.15;0.05;;;;;;;10.54;100.00;98915.84;7397328;19;20050;-88
2023/11/18 07:55:40;;;;;;;0.10;0.00;;;;;;;12.01;100.00;98896.44;7394209;19;20010;-87
2023/11/18 07:58:12;;;;;;;0.20;0.20;;;;;;;11.84;100.00;98901.28;7396029;19;20015;-88
2023/11/18 08:00:45;;;;;;;0.05;0.00;;;;;;;13.02;100.00;98897.69;7394110;19;20022;-88
2023/11/18 08:03:12;;;;;;;0.20;0.20;;;;;;;13.39;100.00;98897.25;7394110;19;20370;-88
2023/11/18 08:05:43;;;;;;;0.13;0.13;;;;;;;12.03;100.00;98905.06;7393835;19;20115;-88
2023/11/18 08:08:13;;;;;;;0.10;0.10;;;;;;;10.58;100.00;98925.47;7395616;19;20015;-87
2023/11/18 08:10:41;;;;;;;0.10;0.10;;;;;;;10.85;100.00;98912.19;7397944;19;20002;-88
2023/11/18 08:13:08;;;;;;;0.38;0.20;;;;;;;12.17;100.00;98904.03;7393871;19;20014;-88
2023/11/18 08:15:35;;;;;;;0.55;0.10;;;;;;;11.49;100.00;98895.38;7393488;19;20066;-88
2023/11/18 08:18:02;;;;;;;0.00;0.00;;;;;;;11.75;100.00;98909.91;7395928;19;20521;-87
2023/11/18 08:20:28;;;;;;;0.15;0.08;;;;;;;13.86;100.00;98900.75;7391766;19;20015;-88
2023/11/18 08:22:55;;;;;;;0.50;0.47;;;;;;;14.42;100.00;98896.19;7395619;19;20014;-88
2023/11/18 08:25:21;;;;;;;0.00;0.00;;;;;;;15.07;100.00;98893.88;7391256;19;20017;-88
2023/11/18 08:27:48;;;;;;;0.10;0.10;;;;;;;16.59;100.00;98892.50;7392195;19;20021;-88
2023/11/18 08:30:17;;;;;;;0.45;0.10;;;;;;;14.86;100.00;98890.06;7392831;19;20103;-88
2023/11/18 08:32:46;;;;;;;0.00;0.00;;;;;;;12.87;100.00;98891.66;7392583;19;20346;-88
2023/11/18 08:35:15;;;;;;;0.20;0.15;;;;;;;12.42;100.00;98901.44;7391449;19;20010;-87
2023/11/18 08:37:42;;;;;;;0.32;0.30;;;;;;;13.53;100.00;98905.31;7390375;19;20019;-90
2023/11/18 08:40:15;;;;;;;0.85;0.30;;;;;;;14.80;100.00;98903.41;7391959;19;20551;-90
2023/11/18 08:42:49;;;;;;;1.42;0.40;;;;;;;15.28;100.00;98890.56;7393120;19;20035;-90
2023/11/18 08:45:32;;;;;;;2.65;0.28;;;;;;;13.90;100.00;98873.25;7392019;19;20014;-90
2023/11/18 08:48:07;;;;;;;0.85;0.30;;;;;;;19.16;100.00;98861.16;7393597;19;20014;-88
2023/11/18 08:50:35;;;;;;;0.30;0.30;;;;;;;15.94;100.00;98862.25;7391722;19;20015;-87
2023/11/18 08:53:05;;;;;;;0.65;0.55;;;;;;;12.86;100.00;98878.97;7394285;19;20456;-90
2023/11/18 08:55:38;;;;;;;3.83;0.63;;;;;;;12.44;100.00;98882.91;7385884;19;20457;-80
2023/11/18 08:58:15;;;;;;;0.32;0.30;;;;;;;14.82;100.00;98850.38;7386642;19;20022;-80
2023/11/18 09:03:34;;;;;;;0.80;0.47;;;;;;;14.81;100.00;98860.06;7388415;19;20011;-80
2023/11/18 09:06:05;;;;;;;0.52;0.30;;;;;;;15.05;100.00;98868.41;7388346;19;20018;-80
2023/11/18 09:08:38;;;;;;;1.02;0.68;;;;;;;15.01;100.00;98856.75;7388540;19;20018;-80
2023/11/18 09:11:06;;;;;;;1.05;0.65;;;;;;;12.80;100.00;98856.63;7387784;19;20009;-80
2023/11/18 09:13:34;;;;;;;0.47;0.40;;;;;;;12.72;100.00;98857.69;7389061;19;20014;-80
2023/11/18 09:16:03;;;;;;;0.60;0.47;;;;;;;15.32;100.00;98848.91;7391639;19;20070;-81
2023/11/18 09:18:32;;;;;;;2.45;0.90;;;;;;;15.18;100.00;98848.84;7391156;19;20086;-81
2023/11/18 09:21:01;;;;;;;2.40;0.55;;;;;;;15.27;100.00;98849.78;7390648;19;20472;-80
2023/11/18 09:23:28;;;;;;;1.02;0.40;;;;;;;15.82;100.00;98849.69;7390141;19;20017;-81
2023/11/18 09:25:54;;;;;;;0.40;0.17;;;;;;;15.99;100.00;98849.41;7390537;19;20027;-81
2023/11/18 09:28:24;;;;;;;0.82;0.50;;;;;;;15.78;100.00;98848.50;7389059;19;20010;-81
2023/11/18 09:30:53;;;;;;;0.30;0.30;;;;;;;15.96;100.00;98858.88;7390962;19;20014;-81
2023/11/18 09:33:28;;;;;;;0.13;0.13;;;;;;;16.09;100.00;98832.91;7390029;19;20016;-80
2023/11/18 09:35:58;;;;;;;0.35;0.22;;;;;;;16.10;100.00;98812.69;7388221;19;20011;-81
2023/11/18 09:38:35;;;;;;;2.58;0.32;;;;;;;16.13;100.00;98814.44;7389176;19;20014;-81
2023/11/18 09:41:10;;;;;;;0.63;0.57;;;;;;;16.24;100.00;98828.25;7389943;19;20021;-81
2023/11/18 09:43:47;;;;;;;0.15;0.15;;;;;;;15.82;100.00;98827.22;7391033;19;20014;-81
2023/11/18 09:46:15;;;;;;;1.35;0.20;;;;;;;16.08;100.00;98849.00;7389938;19;20010;-81
2023/11/18 09:48:46;;;;;;;0.13;0.13;;;;;;;16.48;100.00;98861.78;7388128;19;20009;-81
2023/11/18 09:51:38;;;;;;;5.25;0.45;;;;;;;16.67;100.00;98839.94;7389157;19;20085;-81
2023/11/18 09:54:10;;;;;;;0.30;0.30;;;;;;;19.41;100.00;98821.91;7387347;19;20014;-79
2023/11/18 09:56:57;;;;;;;2.13;1.08;;;;;;;13.29;100.00;98843.69;7388456;19;20489;-79
2023/11/18 09:59:34;;;;;;;0.10;0.10;;;;;;;12.85;100.00;98838.31;7389231;19;20018;-79
2023/11/18 10:02:04;;;;;;;0.10;0.10;;;;;;;12.62;100.00;98848.84;7390649;19;20457;-80
2023/11/18 10:04:31;;;;;;;0.20;0.20;;;;;;;13.37;100.00;98839.06;7390147;19;20011;-80
2023/11/18 10:07:02;;;;;;;0.10;0.00;;;;;;;13.55;100.00;98837.66;7386921;19;20012;-79
2023/11/18 10:09:28;;;;;;;0.08;0.08;;;;;;;15.13;100.00;98838.50;7388050;19;20007;-80
2023/11/18 10:12:05;;;;;;;0.20;0.20;;;;;;;15.45;100.00;98821.72;7387140;19;20014;-79
2023/11/18 10:14:35;;;;;;;0.30;0.30;;;;;;;13.46;100.00;98824.00;7388056;19;20112;-80
2023/11/18 10:17:08;;;;;;;0.00;0.00;;;;;;;13.39;100.00;98816.16;7389203;19;20011;-80
2023/11/18 10:19:55;;;;;;;1.02;0.47;;;;;;;13.08;100.00;98820.16;7389985;19;20019;-80
2023/11/18 10:22:25;;;;;;;0.30;0.25;;;;;;;12.94;100.00;98826.84;7388285;19;20035;-80
2023/11/18 10:24:55;;;;;;;0.20;0.10;;;;;;;14.25;100.00;98825.56;7386620;19;20011;-80
2023/11/18 10:27:25;;;;;;;0.10;0.10;;;;;;;14.53;100.00;98834.41;7386193;19;20002;-80
2023/11/18 10:30:02;;;;;;;0.43;0.32;;;;;;;13.40;100.00;98826.84;7389007;19;20035;-79
2023/11/18 10:32:28;;;;;;;0.10;0.10;;;;;;;14.48;100.00;98837.28;7394707;19;20013;-80
2023/11/18 10:34:56;;;;;;;3.38;0.68;;;;;;;13.38;100.00;98843.34;7393325;19;20014;-80
2023/11/18 10:37:23;;;;;;;5.38;0.90;;;;;;;13.36;100.00;98837.53;7392449;19;20379;-80
2023/11/18 10:39:53;;;;;;;4.90;0.43;;;;;;;13.77;100.00;98851.47;7395432;19;20025;-80
2023/11/18 10:42:19;;;;;;;2.03;0.82;;;;;;;13.23;100.00;98851.34;7393818;19;20015;-79
2023/11/18 10:44:58;;;;;;;0.60;0.20;;;;;;;12.80;100.00;98853.06;7394771;19;20010;-79
2023/11/18 10:47:26;;;;;;;3.83;1.38;;;;;;;13.29;100.00;98859.72;7394572;19;20479;-80
2023/11/18 10:49:55;;;;;;;1.20;1.10;;;;;;;13.02;100.00;98863.38;7396410;19;20411;-80
2023/11/18 10:52:37;;;;;;;2.05;1.05;;;;;;;13.27;100.00;98857.44;7393841;19;20011;-80
2023/11/18 10:55:11;;;;;;;2.33;1.38;;;;;;;13.91;100.00;98841.91;7394366;19;20018;-80
2023/11/18 10:57:38;;;;;;;0.20;0.15;;;;;;;12.86;100.00;98848.97;7393346;19;20002;-80
2023/11/18 11:00:19;;;;;;;3.03;0.85;;;;;;;12.74;100.00;98855.13;7393786;19;20022;-80
2023/11/18 11:02:47;;;;;;;0.43;0.35;;;;;;;13.00;100.00;98838.75;7393579;19;20359;-80
2023/11/18 11:05:32;;;;;;;0.90;0.45;;;;;;;13.05;100.00;98840.78;7393374;19;20010;-80
2023/11/18 11:07:59;;;;;;;0.45;0.43;;;;;;;13.02;100.00;98827.81;7392745;19;20026;-80
2023/11/18 11:10:28;;;;;;;0.80;0.57;;;;;;;14.00;100.00;98832.41;7391757;19;20107;-80
2023/11/18 11:12:55;;;;;;;2.60;0.75;;;;;;;13.31;100.00;98829.94;7394555;19;20025;-80
2023/11/18 11:15:32;;;;;;;5.47;0.75;;;;;;;12.87;100.00;98819.00;7391472;19;20014;-79
2023/11/18 11:18:14;;;;;;;1.38;0.40;;;;;;;13.00;100.00;98816.38;7394572;19;20041;-79
2023/11/18 11:21:15;;;;;;;0.73;0.25;;;;;;;12.59;100.00;98821.16;7393265;19;20037;-79
2023/11/18 11:23:57;;;;;;;5.28;0.20;;;;;;;12.91;100.00;98805.50;7394055;19;20018;-79
2023/11/18 11:26:38;;;;;;;0.52;0.20;;;;;;;12.97;100.00;98811.09;7394213;19;20070;-80
2023/11/18 11:29:18;;;;;;;0.55;0.50;;;;;;;13.57;100.00;98819.06;7391441;19;20010;-80
2023/11/18 11:31:51;;;;;;;0.00;0.00;;;;;;;13.84;100.00;98811.69;7392719;19;20032;-80
2023/11/18 11:34:20;;;;;;;0.40;0.40;;;;;;;14.41;100.00;98819.78;7390841;19;20370;-80
2023/11/18 11:36:50;;;;;;;0.52;0.38;;;;;;;15.97;100.00;98798.63;7392311;19;20453;-80
2023/11/18 11:39:22;;;;;;;0.20;0.20;;;;;;;14.58;100.00;98799.97;7393928;19;20069;-80
2023/11/18 11:41:56;;;;;;;0.28;0.15;;;;;;;14.02;100.00;98808.22;7389555;19;20471;-80